Time;durP1;ratioP1;P1;durP2;ratioP2;P2;SDS_P1;SDS_P2;PMS_P1;PMS_P2;Temp;Humidity;BMP_temperature;BMP_pressure;BME280_temperature;BME280_humidity;BME280_pressure;Samples;Min_cycle;Max_cycle;Signal;HPM_P1;HPM_P2
2021/12/14 00:01:01;;;;;;;53.20;22.10;;;;;;;-2.04;87.01;101694.93;88029;1282;79322;-64
2021/12/14 00:03:12;;;;;;;55.90;23.50;;;;;;;-2.00;86.96;101692.99;88032;1282;80438;-64
2021/12/14 00:05:24;;;;;;;53.30;23.80;;;;;;;-2.03;87.19;101689.95;88067;1282;99925;-65
2021/12/14 00:07:33;;;;;;;55.20;23.20;;;;;;;-2.08;86.92;101690.55;88028;1282;88951;-66
2021/12/14 00:09:47;;;;;;;52.10;22.20;;;;;;;-2.02;86.99;101696.07;88053;1282;94127;-63
2021/12/14 00:12:16;;;;;;;54.90;23.90;;;;;;;-2.03;86.99;101703.36;88043;1282;77202;-63
2021/12/14 00:17:00;;;;;;;57.60;22.70;;;;;;;-2.15;87.13;101708.73;88009;1282;99748;-65
2021/12/14 00:19:13;;;;;;;54.50;22.50;;;;;;;-2.14;87.24;101709.02;88046;1274;88144;-65
2021/12/14 00:21:30;;;;;;;50.40;20.60;;;;;;;-2.21;86.94;101710.81;87994;1282;95749;-66
2021/12/14 00:26:08;;;;;;;55.00;22.30;;;;;;;-2.29;86.82;101711.41;88016;1282;82129;-63
2021/12/14 00:28:23;;;;;;;50.70;20.60;;;;;;;-2.37;86.94;101714.63;88007;1281;100118;-63
2021/12/14 00:30:33;;;;;;;53.50;21.30;;;;;;;-2.36;87.03;101720.42;88087;1282;88060;-63
2021/12/14 00:32:42;;;;;;;50.90;22.40;;;;;;;-2.25;87.51;101725.84;88041;1280;94344;-63
2021/12/14 00:34:58;;;;;;;58.00;22.90;;;;;;;-2.23;87.53;101724.48;88020;1282;79247;-65
2021/12/14 00:37:09;;;;;;;53.60;22.60;;;;;;;-2.18;87.08;101723.16;88040;1282;80094;-65
2021/12/14 00:39:19;;;;;;;53.50;21.50;;;;;;;-2.16;87.21;101724.18;88090;1281;98497;-63
2021/12/14 00:41:33;;;;;;;54.50;22.30;;;;;;;-2.15;87.01;101726.06;88071;1280;88724;-63
2021/12/14 00:43:46;;;;;;;56.40;24.20;;;;;;;-2.16;87.19;101727.14;87980;1280;95460;-64
2021/12/14 00:45:58;;;;;;;56.60;23.50;;;;;;;-2.15;87.12;101727.83;88026;1280;78759;-64
2021/12/14 00:48:14;;;;;;;54.80;23.60;;;;;;;-2.14;86.89;101725.66;88028;1282;83016;-64
2021/12/14 00:50:27;;;;;;;52.90;22.00;;;;;;;-2.20;87.17;101728.78;88054;1280;98922;-64
2021/12/14 00:52:41;;;;;;;58.80;22.70;;;;;;;-2.26;86.94;101735.08;88019;1282;88969;-62
2021/12/14 00:54:51;;;;;;;55.50;21.90;;;;;;;-2.27;87.11;101736.02;88056;1280;92762;-62
2021/12/14 00:57:04;;;;;;;57.60;22.10;;;;;;;-2.24;87.20;101735.50;88005;1280;79007;-63
2021/12/14 00:59:18;;;;;;;55.10;22.90;;;;;;;-2.26;87.17;101736.66;88053;1282;80168;-66
2021/12/14 01:01:37;;;;;;;52.10;21.90;;;;;;;-2.25;87.19;101737.68;88044;1282;99564;-63
2021/12/14 01:03:54;;;;;;;54.20;22.20;;;;;;;-2.24;87.11;101736.91;87900;1282;90573;-64
2021/12/14 01:06:11;;;;;;;62.20;22.90;;;;;;;-2.21;87.09;101732.69;87920;1281;95456;-65
2021/12/14 01:08:31;;;;;;;48.70;21.90;;;;;;;-2.18;86.85;101729.93;88034;1285;77324;-65
2021/12/14 01:10:52;;;;;;;51.70;22.90;;;;;;;-2.28;87.09;101725.65;88067;1282;82765;-66
2021/12/14 01:13:07;;;;;;;46.60;20.70;;;;;;;-2.28;86.58;101724.92;88055;1282;97051;-66
2021/12/14 01:15:29;;;;;;;51.30;19.90;;;;;;;-2.36;86.64;101724.62;88035;1282;87664;-65
2021/12/14 01:17:43;;;;;;;43.70;19.30;;;;;;;-2.49;86.79;101718.21;88029;1282;92216;-65
2021/12/14 01:19:57;;;;;;;39.00;18.40;;;;;;;-2.52;86.52;101719.04;87998;1279;80760;-63
2021/12/14 01:22:18;;;;;;;43.90;18.90;;;;;;;-2.54;86.72;101722.15;87922;1282;83424;-65
2021/12/14 01:25:00;;;;;;;44.90;19.60;;;;;;;-2.57;86.65;101728.31;88008;1282;98099;-63
2021/12/14 01:27:17;;;;;;;45.00;19.20;;;;;;;-2.55;86.79;101729.41;88055;1282;87293;-66
2021/12/14 01:29:28;;;;;;;40.50;18.40;;;;;;;-2.47;87.07;101721.13;88042;1280;93531;-64
2021/12/14 01:31:41;;;;;;;44.50;19.20;;;;;;;-2.42;87.20;101712.20;88032;1278;77602;-64
2021/12/14 01:34:14;;;;;;;39.90;19.00;;;;;;;-2.33;86.81;101708.95;88048;1276;80426;-67
2021/12/14 01:36:29;;;;;;;43.80;18.30;;;;;;;-2.34;86.94;101706.91;88016;1282;99858;-64
2021/12/14 01:38:58;;;;;;;47.80;22.40;;;;;;;-2.37;86.74;101704.23;88015;1282;88491;-64
2021/12/14 01:41:14;;;;;;;50.00;21.10;;;;;;;-2.39;86.66;101705.34;88018;1282;94463;-62
2021/12/14 01:43:38;;;;;;;49.00;21.20;;;;;;;-2.41;86.42;101705.48;88030;1282;79694;-63
2021/12/14 01:45:51;;;;;;;51.40;21.10;;;;;;;-2.49;86.33;101703.92;88094;1285;82609;-67
2021/12/14 01:48:02;;;;;;;49.30;19.40;;;;;;;-2.53;86.46;101701.84;88034;1282;97390;-63
2021/12/14 01:50:17;;;;;;;46.20;19.70;;;;;;;-2.57;86.46;101703.95;88049;1282;88458;-62
2021/12/14 01:52:31;;;;;;;46.60;19.00;;;;;;;-2.59;86.56;101698.08;88027;1282;95644;-66
2021/12/14 01:54:45;;;;;;;44.00;19.70;;;;;;;-2.61;86.67;101695.33;88050;1282;79013;-63
2021/12/14 01:56:55;;;;;;;46.10;19.80;;;;;;;-2.56;86.61;101690.49;88030;1285;83225;-62
2021/12/14 01:59:16;;;;;;;45.80;20.80;;;;;;;-2.53;86.96;101693.70;88045;1282;97854;-65
2021/12/14 02:01:36;;;;;;;50.30;20.10;;;;;;;-2.46;86.75;101689.48;88085;1282;87674;-66
2021/12/14 02:03:53;;;;;;;43.10;18.90;;;;;;;-2.47;87.01;101690.41;88023;1282;95456;-64
2021/12/14 02:06:02;;;;;;;48.30;21.10;;;;;;;-2.50;86.69;101685.98;88029;1282;77407;-66
2021/12/14 02:08:22;;;;;;;52.00;21.50;;;;;;;-2.49;86.91;101684.33;88040;1274;79776;-66
2021/12/14 02:10:38;;;;;;;57.50;22.40;;;;;;;-2.49;86.54;101686.11;88042;1282;98617;-63
2021/12/14 02:13:22;;;;;;;52.20;22.70;;;;;;;-2.50;86.63;101688.27;88033;1282;89490;-63
2021/12/14 02:15:35;;;;;;;50.60;20.10;;;;;;;-2.50;86.76;101694.98;87931;1281;93575;-66
2021/12/14 02:17:45;;;;;;;51.50;21.40;;;;;;;-2.53;86.77;101694.27;88033;1282;78301;-66
2021/12/14 02:20:17;;;;;;;55.80;23.30;;;;;;;-2.54;86.79;101697.27;88048;1280;80890;-67
2021/12/14 02:22:45;;;;;;;52.60;21.40;;;;;;;-2.50;86.88;101696.92;88027;1280;99426;-65
2021/12/14 02:24:55;;;;;;;48.60;21.40;;;;;;;-2.47;86.87;101697.64;88044;1280;88736;-63
2021/12/14 02:27:06;;;;;;;47.60;22.10;;;;;;;-2.40;87.01;101698.89;88019;1285;95421;-63
2021/12/14 02:29:27;;;;;;;52.80;22.70;;;;;;;-2.41;87.00;101696.63;88032;1282;78515;-66
2021/12/14 02:31:42;;;;;;;55.30;21.60;;;;;;;-2.42;86.91;101697.91;88055;1274;80516;-68
2021/12/14 02:33:55;;;;;;;56.50;21.70;;;;;;;-2.39;86.98;101694.44;88057;1284;97080;-69
2021/12/14 02:36:08;;;;;;;52.00;21.50;;;;;;;-2.35;86.83;101694.77;88019;1282;88131;-67
2021/12/14 02:38:18;;;;;;;58.40;22.10;;;;;;;-2.44;86.78;101693.24;88015;1282;93822;-67
2021/12/14 02:40:53;;;;;;;60.20;24.10;;;;;;;-2.44;86.83;101689.75;88015;1282;80691;-68
2021/12/14 02:43:06;;;;;;;50.30;22.80;;;;;;;-2.54;86.83;101682.28;88037;1280;83221;-68
2021/12/14 02:45:16;;;;;;;52.70;21.80;;;;;;;-2.53;86.77;101681.93;88045;1282;98265;-68
2021/12/14 02:47:29;;;;;;;65.30;24.50;;;;;;;-2.53;86.78;101682.23;88025;1282;89121;-68
2021/12/14 02:49:44;;;;;;;56.50;22.40;;;;;;;-2.56;86.81;101683.98;88032;1282;94555;-64
2021/12/14 02:51:59;;;;;;;63.90;23.50;;;;;;;-2.54;86.95;101674.38;87906;1276;78447;-65
2021/12/14 02:54:13;;;;;;;56.00;20.90;;;;;;;-2.52;86.79;101673.22;87842;1286;82979;-65
2021/12/14 02:56:32;;;;;;;56.40;24.10;;;;;;;-2.47;86.99;101674.01;88035;1280;98247;-66
2021/12/14 02:58:43;;;;;;;52.70;22.50;;;;;;;-2.41;86.68;101671.23;88037;1282;86599;-68
2021/12/14 03:00:56;;;;;;;52.70;22.50;;;;;;;-2.42;86.69;101672.34;88022;1282;92850;-67
2021/12/14 03:03:08;;;;;;;52.50;23.00;;;;;;;-2.44;86.72;101676.14;88022;1282;77334;-66
2021/12/14 03:05:25;;;;;;;48.50;21.80;;;;;;;-2.41;86.93;101675.30;88043;1282;79542;-66
2021/12/14 03:07:43;;;;;;;52.70;22.80;;;;;;;-2.42;86.51;101681.85;88022;1280;98339;-67
2021/12/14 03:10:07;;;;;;;49.50;21.10;;;;;;;-2.53;86.48;101680.13;88023;1282;87232;-68
2021/12/14 03:12:21;;;;;;;52.20;20.00;;;;;;;-2.64;86.39;101681.04;88051;1285;93984;-66
2021/12/14 03:14:33;;;;;;;48.90;19.70;;;;;;;-2.72;86.26;101677.91;88031;1282;81246;-67
2021/12/14 03:16:45;;;;;;;46.00;20.10;;;;;;;-2.79;86.53;101675.05;88031;1282;83279;-67
2021/12/14 03:18:58;;;;;;;51.90;21.70;;;;;;;-2.87;86.46;101677.23;88021;1282;100769;-64
2021/12/14 03:21:12;;;;;;;51.80;21.30;;;;;;;-2.89;86.42;101674.86;88030;1280;86859;-63
2021/12/14 03:23:26;;;;;;;50.90;21.10;;;;;;;-2.86;86.50;101673.81;88031;1285;94704;-64
2021/12/14 03:25:46;;;;;;;48.10;20.20;;;;;;;-2.89;86.75;101675.19;88044;1285;79266;-68
2021/12/14 03:27:56;;;;;;;48.10;20.60;;;;;;;-2.81;86.35;101667.23;88036;1280;79741;-67
2021/12/14 03:30:18;;;;;;;46.20;21.20;;;;;;;-2.81;86.48;101671.46;88046;1285;97584;-64
2021/12/14 03:32:28;;;;;;;47.60;20.30;;;;;;;-2.80;86.47;101668.10;88019;1280;89213;-64
2021/12/14 03:34:42;;;;;;;47.60;20.70;;;;;;;-2.75;86.38;101669.23;88033;1282;94786;-64
2021/12/14 03:36:55;;;;;;;47.50;21.50;;;;;;;-2.77;86.33;101665.09;88033;1283;77438;-64
2021/12/14 03:39:14;;;;;;;43.00;19.40;;;;;;;-2.78;86.08;101665.17;88034;1282;82189;-67
2021/12/14 03:41:28;;;;;;;43.60;20.10;;;;;;;-2.85;86.17;101661.96;88050;1270;98092;-68
2021/12/14 03:43:41;;;;;;;39.60;18.30;;;;;;;-2.90;86.07;101665.02;88059;1285;86686;-66
2021/12/14 03:45:50;;;;;;;37.90;16.90;;;;;;;-2.94;86.23;101660.80;87987;1282;94789;-68
2021/12/14 03:48:04;;;;;;;34.20;17.50;;;;;;;-3.05;85.90;101662.73;88021;1280;78897;-67
2021/12/14 03:50:15;;;;;;;;;;;;;;;-3.12;85.98;101669.23;88043;1282;82768;-67
2021/12/14 03:52:27;;;;;;;40.40;18.50;;;;;;;-3.21;86.15;101671.93;87910;1276;97234;-66
2021/12/14 03:54:36;;;;;;;35.10;16.30;;;;;;;-3.21;86.38;101668.42;88058;1282;88227;-67
2021/12/14 03:56:46;;;;;;;35.50;16.20;;;;;;;-3.20;86.18;101668.20;88065;1280;93553;-67
2021/12/14 03:58:57;;;;;;;34.70;16.50;;;;;;;-3.13;86.17;101665.55;87999;1280;76019;-65
2021/12/14 04:01:13;;;;;;;32.00;15.30;;;;;;;-3.08;86.30;101666.75;88067;1285;81029;-67
2021/12/14 04:03:29;;;;;;;39.00;18.20;;;;;;;-3.17;86.15;101662.27;88064;1286;98205;-66
2021/12/14 04:05:40;;;;;;;36.90;17.20;;;;;;;-3.19;86.18;101656.18;88005;1280;87186;-65
2021/12/14 04:07:54;;;;;;;39.20;18.50;;;;;;;-3.28;86.10;101650.25;88031;1282;93978;-63
2021/12/14 04:10:05;;;;;;;39.50;17.30;;;;;;;-3.40;86.03;101649.59;88053;1280;78527;-67
2021/12/14 04:12:18;;;;;;;44.10;19.30;;;;;;;-3.46;86.22;101657.61;88023;1280;81713;-69
2021/12/14 04:14:31;;;;;;;36.60;17.60;;;;;;;-3.54;86.02;101666.95;88011;1282;98673;-67
2021/12/14 04:16:45;;;;;;;41.50;17.30;;;;;;;-3.59;86.17;101666.67;87912;1282;87123;-66
2021/12/14 04:19:04;;;;;;;43.20;19.20;;;;;;;-3.55;86.14;101670.52;87998;1285;95604;-66
2021/12/14 04:21:16;;;;;;;41.60;19.50;;;;;;;-3.56;85.99;101669.68;88006;1282;79421;-67
2021/12/14 04:23:34;;;;;;;38.60;17.50;;;;;;;-3.54;86.06;101665.19;88020;1282;82644;-67
2021/12/14 04:25:45;;;;;;;36.20;17.60;;;;;;;-3.52;86.16;101668.13;88037;1282;99790;-66
2021/12/14 04:27:57;;;;;;;40.10;19.10;;;;;;;-3.52;86.27;101665.83;88034;1282;86992;-63
2021/12/14 04:30:10;;;;;;;40.90;18.50;;;;;;;-3.52;86.46;101665.80;88012;1282;95676;-67
2021/12/14 04:32:23;;;;;;;35.60;15.80;;;;;;;-3.43;86.07;101661.20;88031;1282;78121;-66
2021/12/14 04:34:35;;;;;;;39.70;18.00;;;;;;;-3.42;86.21;101655.17;88027;1280;80209;-64
2021/12/14 04:36:45;;;;;;;37.80;18.80;;;;;;;-3.48;86.49;101660.34;88018;1285;100179;-63
2021/12/14 04:39:06;;;;;;;37.70;19.40;;;;;;;-3.44;86.16;101659.86;88027;1282;88318;-65
2021/12/14 04:53:47;;;;;;;46.00;20.90;;;;;;;-3.46;86.47;101644.41;88009;1280;94428;-64
2021/12/14 04:55:59;;;;;;;45.50;21.50;;;;;;;-3.38;86.69;101639.83;88020;1278;76636;-63
2021/12/14 04:58:09;;;;;;;43.00;20.10;;;;;;;-3.35;86.44;101641.63;88048;1280;82007;-63
2021/12/14 05:00:32;;;;;;;41.20;19.60;;;;;;;-3.43;86.60;101645.86;88002;1281;97714;-66
2021/12/14 05:02:42;;;;;;;43.50;20.80;;;;;;;-3.37;86.41;101659.48;88015;1282;87548;-67
2021/12/14 05:04:53;;;;;;;42.40;20.20;;;;;;;-3.35;86.67;101663.79;88005;1281;94434;-68
2021/12/14 05:07:27;;;;;;;42.00;21.10;;;;;;;-3.31;86.19;101661.67;88018;1283;79243;-68
2021/12/14 05:09:40;;;;;;;45.80;22.50;;;;;;;-3.29;86.20;101663.54;88053;1285;81686;-62
2021/12/14 05:11:51;;;;;;;32.70;16.30;;;;;;;-3.32;86.26;101663.50;88005;1281;98874;-62
2021/12/14 05:14:12;;;;;;;41.70;19.40;;;;;;;-3.35;86.49;101661.14;88018;1283;88946;-66
2021/12/14 05:16:24;;;;;;;42.40;20.00;;;;;;;-3.33;86.30;101660.73;88026;1286;95340;-66
2021/12/14 05:18:36;;;;;;;44.50;21.60;;;;;;;-3.35;86.43;101659.38;87881;1282;194298;-66
2021/12/14 05:20:49;;;;;;;39.60;20.20;;;;;;;-3.32;86.25;101658.17;88036;1286;80360;-65
2021/12/14 05:23:03;;;;;;;46.20;20.10;;;;;;;-3.28;86.34;101662.57;88001;1281;98793;-63
2021/12/14 05:25:21;;;;;;;41.60;21.30;;;;;;;-3.23;86.29;101659.16;88057;1281;88358;-66
2021/12/14 05:27:40;;;;;;;40.60;19.50;;;;;;;-3.16;86.27;101654.63;88019;1283;94932;-65
2021/12/14 05:29:50;;;;;;;40.00;19.90;;;;;;;-3.09;86.10;101645.32;88006;1282;77454;-65
2021/12/14 05:32:02;;;;;;;35.50;19.70;;;;;;;-3.12;86.52;101646.52;88026;1282;83362;-64
2021/12/14 05:34:11;;;;;;;39.40;19.50;;;;;;;-3.14;86.40;101651.52;88059;1286;97591;-62
2021/12/14 05:36:24;;;;;;;38.40;20.80;;;;;;;-3.12;86.53;101646.53;88030;1285;87533;-63
2021/12/14 05:38:47;;;;;;;38.20;21.00;;;;;;;-3.11;86.20;101641.86;88017;1282;95751;-63
2021/12/14 05:41:10;;;;;;;40.60;20.40;;;;;;;-3.08;86.22;101640.29;87991;1286;77466;-66
2021/12/14 05:43:27;;;;;;;39.00;19.60;;;;;;;-3.11;86.02;101639.05;88055;1286;81574;-62
2021/12/14 05:45:45;;;;;;;44.00;19.70;;;;;;;-3.10;86.21;101641.30;88005;1282;100101;-65
2021/12/14 05:47:57;;;;;;;39.00;20.40;;;;;;;-3.07;86.35;101639.94;88002;1280;87090;-65
2021/12/14 05:50:17;;;;;;;37.80;19.20;;;;;;;-3.11;86.37;101641.70;88014;1282;95897;-65
2021/12/14 05:52:30;;;;;;;41.20;19.50;;;;;;;-3.12;86.10;101644.55;88004;1276;79141;-65
2021/12/14 05:54:39;;;;;;;37.90;18.60;;;;;;;-3.12;86.12;101653.04;88051;1286;81952;-66
2021/12/14 05:56:49;;;;;;;35.90;18.80;;;;;;;-3.07;86.29;101652.77;88004;1282;99376;-66
2021/12/14 05:59:04;;;;;;;38.00;20.60;;;;;;;-3.00;86.25;101647.88;88052;1282;89144;-65
2021/12/14 06:01:18;;;;;;;36.30;18.80;;;;;;;-2.98;86.06;101654.98;88023;1282;95264;-66
2021/12/14 06:03:32;;;;;;;38.10;20.50;;;;;;;-2.99;86.16;101656.63;88013;1283;77656;-66
2021/12/14 06:05:41;;;;;;;35.60;19.80;;;;;;;-2.93;86.47;101648.77;88024;1285;80223;-63
2021/12/14 06:07:54;;;;;;;33.70;19.20;;;;;;;-2.89;86.31;101646.12;88031;1286;99668;-63
2021/12/14 06:10:07;;;;;;;32.90;17.90;;;;;;;-2.92;86.22;101646.41;88051;1285;87419;-67
2021/12/14 06:12:20;;;;;;;37.30;20.20;;;;;;;-2.96;86.14;101647.15;88032;1283;94815;-65
2021/12/14 06:14:41;;;;;;;35.40;19.30;;;;;;;-2.93;86.22;101650.58;88034;1282;80149;-65
2021/12/14 06:16:55;;;;;;;38.80;19.50;;;;;;;-2.94;86.28;101647.41;87900;1283;81719;-65
2021/12/14 06:19:27;;;;;;;40.20;19.60;;;;;;;-2.98;86.11;101641.08;88020;1282;98141;-65
2021/12/14 06:21:37;;;;;;;38.40;20.00;;;;;;;-3.03;86.47;101631.62;88002;1282;88501;-65
2021/12/14 06:24:00;;;;;;;40.50;19.20;;;;;;;-3.06;86.15;101627.37;88001;1280;95648;-66
2021/12/14 06:26:09;;;;;;;38.00;19.40;;;;;;;-3.07;86.00;101627.77;88010;1282;79782;-66
2021/12/14 06:28:29;;;;;;;37.60;19.40;;;;;;;-3.05;86.26;101624.52;88035;1286;81636;-64
2021/12/14 06:30:41;;;;;;;38.80;19.60;;;;;;;-2.98;86.33;101625.20;88054;1286;98782;-64
2021/12/14 06:32:55;;;;;;;34.00;19.30;;;;;;;-3.01;85.86;101619.39;88012;1283;88639;-64
2021/12/14 06:35:10;;;;;;;39.80;21.00;;;;;;;-2.98;86.23;101617.83;88040;1287;92054;-65
2021/12/14 06:38:07;;;;;;;38.60;20.30;;;;;;;-2.91;86.21;101615.75;88026;1288;76752;-64
2021/12/14 06:40:26;;;;;;;42.50;22.00;;;;;;;-2.96;85.94;101612.60;88063;1286;81725;-64
2021/12/14 06:42:38;;;;;;;43.80;21.10;;;;;;;-3.01;85.96;101610.02;87899;1286;101285;-64
2021/12/14 06:44:48;;;;;;;41.80;20.80;;;;;;;-3.08;85.84;101611.41;88034;1286;88712;-64
2021/12/14 06:46:57;;;;;;;42.10;22.50;;;;;;;-3.14;86.06;101613.83;87999;1281;94411;-64
2021/12/14 06:49:10;;;;;;;42.60;21.20;;;;;;;-3.16;85.91;101620.45;88014;1282;81501;-72
2021/12/14 06:51:23;;;;;;;39.50;21.50;;;;;;;-3.15;85.84;101620.56;88034;1285;81660;-71
2021/12/14 06:53:34;;;;;;;41.60;21.30;;;;;;;-3.09;86.08;101613.95;88027;1285;99761;-70
2021/12/14 06:55:44;;;;;;;45.00;21.30;;;;;;;-3.04;86.00;101617.58;88070;1282;88730;-65
2021/12/14 06:57:53;;;;;;;42.50;22.10;;;;;;;-2.93;86.15;101615.66;87981;1282;93468;-64
2021/12/14 07:00:05;;;;;;;40.20;19.90;;;;;;;-2.86;86.15;101615.31;87981;1285;81519;-72
2021/12/14 07:02:19;;;;;;;42.70;22.10;;;;;;;-2.82;85.85;101613.02;88047;1286;80448;-65
2021/12/14 07:04:31;;;;;;;40.60;21.80;;;;;;;-2.74;85.90;101601.84;88037;1286;99752;-64
2021/12/14 07:06:44;;;;;;;40.20;20.70;;;;;;;-2.67;86.14;101594.61;88035;1283;88974;-65
2021/12/14 07:09:05;;;;;;;44.30;22.50;;;;;;;-2.66;86.03;101598.45;88021;1282;95285;-67
2021/12/14 07:11:21;;;;;;;45.20;22.00;;;;;;;-2.58;85.99;101598.02;88034;1285;77782;-74
2021/12/14 07:13:38;;;;;;;41.70;21.40;;;;;;;-2.51;86.12;101598.94;88036;1285;82921;-73
2021/12/14 07:15:51;;;;;;;46.30;22.20;;;;;;;-2.50;86.00;101599.90;88018;1286;99164;-70
2021/12/14 07:18:04;;;;;;;34.40;17.70;;;;;;;-2.50;85.84;101602.56;87916;1286;88829;-69
2021/12/14 07:20:32;;;;;;;44.30;23.20;;;;;;;-2.50;86.04;101601.31;87998;1286;95093;-69
2021/12/14 07:22:45;;;;;;;44.20;22.30;;;;;;;-2.44;85.74;101602.27;87995;1286;79295;-70
2021/12/14 07:25:06;;;;;;;46.90;23.00;;;;;;;-2.41;85.84;101601.75;88024;1284;83517;-70
2021/12/14 07:27:30;;;;;;;48.40;22.10;;;;;;;-2.34;85.72;101595.61;88011;1286;99302;-70
2021/12/14 07:29:39;;;;;;;43.40;21.30;;;;;;;-2.25;85.78;101593.34;88017;1285;88482;-64
2021/12/14 07:31:49;;;;;;;44.40;22.10;;;;;;;-2.18;85.76;101595.41;87976;1286;95361;-64
2021/12/14 07:34:03;;;;;;;45.30;22.80;;;;;;;-2.16;85.34;101593.20;88034;1286;79033;-69
2021/12/14 07:36:23;;;;;;;48.40;22.30;;;;;;;-2.03;85.64;101592.72;88045;1283;81739;-71
2021/12/14 07:38:47;;;;;;;45.60;23.10;;;;;;;-1.90;85.64;101590.08;88011;1280;98832;-71
2021/12/14 07:41:00;;;;;;;48.90;23.40;;;;;;;-1.81;85.58;101591.33;88046;1285;85937;-64
2021/12/14 07:43:19;;;;;;;46.30;19.30;;;;;;;-1.76;85.60;101587.07;88024;1286;95439;-64
2021/12/14 07:45:32;;;;;;;51.40;24.80;;;;;;;-1.75;85.57;101589.13;88021;1282;77733;-74
2021/12/14 07:47:52;;;;;;;47.90;24.00;;;;;;;-1.73;85.43;101590.95;88026;1286;83129;-72
2021/12/14 07:50:08;;;;;;;47.40;24.30;;;;;;;-1.72;85.46;101596.38;88048;1280;99975;-64
2021/12/14 07:52:24;;;;;;;47.90;23.60;;;;;;;-1.75;85.43;101596.20;88004;1285;88764;-69
2021/12/14 07:54:36;;;;;;;51.50;25.40;;;;;;;-1.83;85.19;101599.56;88060;1282;93632;-69
2021/12/14 07:56:49;;;;;;;47.90;23.40;;;;;;;-1.90;85.20;101600.30;88025;1286;79980;-69
2021/12/14 07:59:00;;;;;;;51.40;24.60;;;;;;;-1.89;85.47;101607.33;88073;1285;82843;-63
2021/12/14 08:01:14;;;;;;;46.00;23.00;;;;;;;-1.83;85.42;101611.92;88020;1283;99496;-63
2021/12/14 08:03:33;;;;;;;44.50;22.10;;;;;;;-1.78;85.40;101611.87;88000;1283;87385;-64
2021/12/14 08:05:48;;;;;;;47.40;23.10;;;;;;;-1.76;85.61;101605.59;87991;1284;95907;-62
2021/12/14 08:08:09;;;;;;;46.90;23.40;;;;;;;-1.71;85.63;101609.20;88016;1283;78764;-63
2021/12/14 08:10:26;;;;;;;49.20;24.70;;;;;;;-1.65;85.75;101605.70;87989;1281;80368;-69
2021/12/14 08:12:43;;;;;;;51.50;24.10;;;;;;;-1.63;85.76;101604.16;88018;1286;100509;-68
2021/12/14 08:15:05;;;;;;;47.70;23.70;;;;;;;-1.62;85.62;101607.83;88003;1284;87234;-62
2021/12/14 08:17:15;;;;;;;51.60;25.00;;;;;;;-1.61;85.42;101611.45;88034;1285;96063;-64
2021/12/14 08:19:36;;;;;;;53.50;25.10;;;;;;;-1.57;85.50;101612.13;88012;1286;77560;-68
2021/12/14 08:21:46;;;;;;;51.80;24.00;;;;;;;-1.54;85.53;101612.66;88011;1284;80487;-67
2021/12/14 08:24:05;;;;;;;61.40;24.10;;;;;;;-1.56;85.50;101613.12;87989;1288;97913;-64
2021/12/14 08:26:19;;;;;;;51.80;23.60;;;;;;;-1.54;85.60;101615.15;87899;1286;86989;-69
2021/12/14 08:28:26;;;;;;;;;;;;;;;-1.49;85.34;101613.64;87975;1286;95741;-66
2021/12/14 08:30:39;;;;;;;56.20;24.30;;;;;;;-1.50;85.28;101614.92;87918;1286;78923;-67
2021/12/14 08:32:48;;;;;;;51.60;24.10;;;;;;;-1.43;85.39;101622.14;88036;1277;81078;-69
2021/12/14 08:35:01;;;;;;;48.80;23.00;;;;;;;-1.42;85.58;101619.45;88024;1283;99999;-66
2021/12/14 08:37:17;;;;;;;52.00;23.70;;;;;;;-1.40;85.47;101619.87;88029;1286;87989;-66
2021/12/14 08:39:31;;;;;;;51.40;25.00;;;;;;;-1.36;85.93;101618.55;87997;1277;95746;-63
2021/12/14 08:41:50;;;;;;;53.60;25.10;;;;;;;-1.33;85.59;101612.21;88006;1285;80230;-66
2021/12/14 08:44:08;;;;;;;55.00;24.60;;;;;;;-1.33;85.62;101613.14;88047;1282;80656;-67
2021/12/14 08:46:23;;;;;;;49.80;24.30;;;;;;;-1.32;85.78;101617.63;87982;1286;99552;-69
2021/12/14 08:48:37;;;;;;;53.50;25.30;;;;;;;-1.26;85.71;101619.98;88000;1282;88539;-68
2021/12/14 08:50:53;;;;;;;55.90;27.00;;;;;;;-1.27;85.66;101615.25;87975;1279;92781;-65
2021/12/14 08:53:08;;;;;;;53.60;25.20;;;;;;;-1.24;85.63;101615.23;87997;1284;80655;-65
2021/12/14 08:55:24;;;;;;;54.50;24.50;;;;;;;-1.23;85.53;101605.67;88012;1283;81171;-62
2021/12/14 08:57:44;;;;;;;50.00;22.60;;;;;;;-1.17;85.55;101601.64;87983;1285;97635;-66
2021/12/14 09:00:20;;;;;;;53.20;24.40;;;;;;;-1.10;85.33;101601.95;88002;1276;90024;-65
2021/12/14 09:02:32;;;;;;;;;;;;;;;-1.03;85.21;101597.13;87908;1286;94316;-64
2021/12/14 09:04:48;;;;;;;51.80;25.10;;;;;;;-0.97;85.23;101595.55;87940;1285;80702;-62
2021/12/14 09:07:02;;;;;;;55.10;26.00;;;;;;;-0.92;85.54;101588.51;87938;1283;80155;-63
2021/12/14 09:09:12;;;;;;;;;;;;;;;-0.84;85.65;101590.89;88011;1283;100674;-63
2021/12/14 09:11:26;;;;;;;54.10;24.50;;;;;;;-0.81;85.48;101591.08;88013;1282;87087;-64
2021/12/14 09:13:36;;;;;;;55.70;25.60;;;;;;;-0.79;85.48;101588.33;87867;1283;95277;-62
2021/12/14 09:15:50;;;;;;;54.50;25.20;;;;;;;-0.72;85.29;101581.54;88008;1283;77335;-63
2021/12/14 09:17:58;;;;;;;;;;;;;;;-0.69;85.18;101578.50;88007;1286;82131;-63
2021/12/14 09:20:14;;;;;;;61.00;26.80;;;;;;;-0.72;85.33;101580.11;87985;1286;98533;-64
2021/12/14 09:22:28;;;;;;;59.40;26.10;;;;;;;-0.72;85.16;101570.52;88005;1281;88587;-65
2021/12/14 09:24:43;;;;;;;58.10;27.70;;;;;;;-0.74;85.13;101570.68;87995;1283;93987;-64
2021/12/14 09:26:57;;;;;;;58.00;25.60;;;;;;;-0.77;85.01;101565.73;87987;1282;79524;-64
2021/12/14 09:29:17;;;;;;;55.90;25.20;;;;;;;-0.71;84.87;101560.77;88016;1286;81824;-64
2021/12/14 09:31:39;;;;;;;53.90;25.00;;;;;;;-0.70;84.85;101559.98;87989;1281;99359;-64
2021/12/14 09:33:55;;;;;;;61.70;26.40;;;;;;;-0.69;84.84;101563.83;88003;1285;89432;-65
2021/12/14 09:36:12;;;;;;;57.90;25.80;;;;;;;-0.67;85.09;101558.92;87882;1282;95414;-65
2021/12/14 09:38:32;;;;;;;56.10;26.70;;;;;;;-0.57;85.10;101558.16;87980;1282;78620;-65
2021/12/14 09:40:49;;;;;;;55.60;27.10;;;;;;;-0.45;85.16;101559.61;87945;1278;81041;-63
2021/12/14 09:43:00;;;;;;;54.50;25.90;;;;;;;-0.35;85.34;101560.77;88003;1283;97692;-64
2021/12/14 09:45:28;;;;;;;56.80;26.50;;;;;;;-0.33;85.26;101561.67;88009;1285;88004;-64
2021/12/14 09:47:41;;;;;;;56.30;26.60;;;;;;;-0.33;85.27;101558.48;87955;1284;95845;-65
2021/12/14 09:49:53;;;;;;;56.80;29.40;;;;;;;-0.40;85.14;101552.38;88004;1282;79711;-64
2021/12/14 09:52:09;;;;;;;53.20;26.10;;;;;;;-0.33;85.15;101556.73;87998;1282;80159;-65
2021/12/14 09:54:26;;;;;;;54.10;25.30;;;;;;;-0.24;84.97;101556.17;88002;1282;97521;-65
2021/12/14 09:56:40;;;;;;;54.20;24.80;;;;;;;-0.22;84.98;101554.28;87972;1282;88681;-63
2021/12/14 09:58:58;;;;;;;57.30;25.70;;;;;;;-0.19;85.10;101553.79;87968;1282;94957;-63
2021/12/14 10:01:16;;;;;;;53.10;25.30;;;;;;;-0.17;85.08;101549.38;88013;1282;78759;-65
2021/12/14 10:03:28;;;;;;;53.10;25.60;;;;;;;-0.10;84.94;101548.58;87981;1285;80556;-63
2021/12/14 10:05:43;;;;;;;47.50;23.40;;;;;;;-0.01;84.74;101545.55;88003;1284;97023;-63
2021/12/14 10:07:56;;;;;;;54.50;25.00;;;;;;;0.04;84.75;101542.77;88029;1282;87411;-63
2021/12/14 10:10:14;;;;;;;51.20;25.20;;;;;;;0.12;84.67;101539.45;88010;1282;94201;-63
2021/12/14 10:12:49;;;;;;;55.10;25.20;;;;;;;0.16;84.39;101537.77;87987;1281;78126;-63
2021/12/14 10:15:03;;;;;;;53.00;25.20;;;;;;;0.13;84.73;101539.20;88016;1286;81766;-64
2021/12/14 10:17:17;;;;;;;53.00;25.70;;;;;;;0.09;84.75;101543.56;87993;1282;99592;-63
2021/12/14 10:19:31;;;;;;;52.50;25.30;;;;;;;0.07;84.83;101540.98;88021;1282;88187;-64
2021/12/14 10:21:48;;;;;;;56.20;27.30;;;;;;;0.00;84.67;101546.52;88003;1285;92690;-64
2021/12/14 10:24:02;;;;;;;54.00;25.20;;;;;;;0.01;84.88;101543.00;87959;1284;80550;-63
2021/12/14 10:26:13;;;;;;;50.10;25.00;;;;;;;-0.02;84.66;101537.27;88009;1280;82045;-63
2021/12/14 10:28:23;;;;;;;63.40;26.80;;;;;;;0.00;84.64;101537.91;87982;1283;99344;-63
2021/12/14 10:30:41;;;;;;;52.00;24.70;;;;;;;0.08;84.74;101532.44;88015;1286;86743;-64
2021/12/14 10:32:54;;;;;;;49.50;22.90;;;;;;;0.10;84.70;101527.32;88018;1282;93525;-64
2021/12/14 10:35:11;;;;;;;49.90;25.10;;;;;;;0.20;84.89;101525.33;88030;1282;77775;-64